sensor_id;sensor_type;location;lat;lon;timestamp;pressure;altitude;pressure_sealevel;temperature
63220;BMP180;49320;52.512;13.448;2022-09-09T00:02:18;100595.00;;;22.70
63220;BMP180;49320;52.512;13.448;2022-09-09T00:05:28;100604.00;;;22.60
63220;BMP180;49320;52.512;13.448;2022-09-09T00:08:02;100601.00;;;22.60
63220;BMP180;49320;52.512;13.448;2022-09-09T00:10:39;100601.00;;;22.60
63220;BMP180;49320;52.512;13.448;2022-09-09T00:13:34;100594.00;;;22.60
63220;BMP180;49320;52.512;13.448;2022-09-09T00:16:20;100606.00;;;22.60
63220;BMP180;49320;52.512;13.448;2022-09-09T00:19:07;100601.00;;;22.60
63220;BMP180;49320;52.512;13.448;2022-09-09T00:21:39;100599.00;;;22.60
63220;BMP180;49320;52.512;13.448;2022-09-09T00:24:42;100602.00;;;22.50
63220;BMP180;49320;52.512;13.448;2022-09-09T00:27:46;100597.00;;;22.50
63220;BMP180;49320;52.512;13.448;2022-09-09T00:30:21;100598.00;;;22.50
63220;BMP180;49320;52.512;13.448;2022-09-09T00:32:55;100598.00;;;22.50
63220;BMP180;49320;52.512;13.448;2022-09-09T00:35:44;100581.00;;;22.50
63220;BMP180;49320;52.512;13.448;2022-09-09T00:38:21;100582.00;;;22.40
63220;BMP180;49320;52.512;13.448;2022-09-09T00:41:00;100587.00;;;22.40
63220;BMP180;49320;52.512;13.448;2022-09-09T00:43:32;100590.00;;;22.40
63220;BMP180;49320;52.512;13.448;2022-09-09T00:49:15;100586.00;;;22.40
63220;BMP180;49320;52.512;13.448;2022-09-09T00:55:10;100586.00;;;22.30
63220;BMP180;49320;52.512;13.448;2022-09-09T00:57:40;100581.00;;;22.30
63220;BMP180;49320;52.512;13.448;2022-09-09T01:00:25;100586.00;;;22.30
63220;BMP180;49320;52.512;13.448;2022-09-09T01:03:35;100590.00;;;22.30
63220;BMP180;49320;52.512;13.448;2022-09-09T01:06:16;100582.00;;;22.30
63220;BMP180;49320;52.512;13.448;2022-09-09T01:11:33;100589.00;;;22.30
63220;BMP180;49320;52.512;13.448;2022-09-09T01:14:13;100597.00;;;22.30
63220;BMP180;49320;52.512;13.448;2022-09-09T01:16:46;100602.00;;;22.20
63220;BMP180;49320;52.512;13.448;2022-09-09T01:19:31;100609.00;;;22.20
63220;BMP180;49320;52.512;13.448;2022-09-09T01:22:19;100606.00;;;22.20
63220;BMP180;49320;52.512;13.448;2022-09-09T01:27:48;100602.00;;;22.20
63220;BMP180;49320;52.512;13.448;2022-09-09T01:30:18;100609.00;;;22.20
63220;BMP180;49320;52.512;13.448;2022-09-09T01:32:49;100610.00;;;22.20
63220;BMP180;49320;52.512;13.448;2022-09-09T01:35:48;100594.00;;;22.10
63220;BMP180;49320;52.512;13.448;2022-09-09T01:38:18;100601.00;;;22.10
63220;BMP180;49320;52.512;13.448;2022-09-09T01:40:45;100600.00;;;22.10
63220;BMP180;49320;52.512;13.448;2022-09-09T01:43:12;100595.00;;;22.10
63220;BMP180;49320;52.512;13.448;2022-09-09T01:45:42;100589.00;;;22.10
63220;BMP180;49320;52.512;13.448;2022-09-09T01:48:09;100595.00;;;22.10
63220;BMP180;49320;52.512;13.448;2022-09-09T01:50:36;100593.00;;;22.10
63220;BMP180;49320;52.512;13.448;2022-09-09T01:53:03;100602.00;;;22.10
63220;BMP180;49320;52.512;13.448;2022-09-09T01:55:39;100601.00;;;22.10
63220;BMP180;49320;52.512;13.448;2022-09-09T01:58:32;100591.00;;;22.00
63220;BMP180;49320;52.512;13.448;2022-09-09T02:01:45;100595.00;;;22.00
63220;BMP180;49320;52.512;13.448;2022-09-09T02:07:21;100596.00;;;21.90
63220;BMP180;49320;52.512;13.448;2022-09-09T02:10:05;100602.00;;;21.90
63220;BMP180;49320;52.512;13.448;2022-09-09T02:12:40;100594.00;;;21.90
63220;BMP180;49320;52.512;13.448;2022-09-09T02:15:34;100614.00;;;21.90
63220;BMP180;49320;52.512;13.448;2022-09-09T02:18:07;100606.00;;;21.90
63220;BMP180;49320;52.512;13.448;2022-09-09T02:20:37;100612.00;;;21.90
63220;BMP180;49320;52.512;13.448;2022-09-09T02:23:07;100612.00;;;21.90
63220;BMP180;49320;52.512;13.448;2022-09-09T02:25:37;100615.00;;;21.90
63220;BMP180;49320;52.512;13.448;2022-09-09T02:28:09;100611.00;;;21.90
63220;BMP180;49320;52.512;13.448;2022-09-09T02:30:40;100604.00;;;21.90
63220;BMP180;49320;52.512;13.448;2022-09-09T02:33:10;100612.00;;;21.90
63220;BMP180;49320;52.512;13.448;2022-09-09T02:35:42;100607.00;;;21.90
63220;BMP180;49320;52.512;13.448;2022-09-09T02:38:13;100608.00;;;21.90
63220;BMP180;49320;52.512;13.448;2022-09-09T02:40:41;100604.00;;;21.90
63220;BMP180;49320;52.512;13.448;2022-09-09T02:43:08;100606.00;;;21.90
63220;BMP180;49320;52.512;13.448;2022-09-09T02:46:26;100615.00;;;21.80
63220;BMP180;49320;52.512;13.448;2022-09-09T02:49:03;100598.00;;;21.80
63220;BMP180;49320;52.512;13.448;2022-09-09T02:51:39;100606.00;;;21.80
63220;BMP180;49320;52.512;13.448;2022-09-09T02:54:27;100599.00;;;21.80
63220;BMP180;49320;52.512;13.448;2022-09-09T02:57:08;100601.00;;;21.70
63220;BMP180;49320;52.512;13.448;2022-09-09T02:59:38;100591.00;;;21.80
63220;BMP180;49320;52.512;13.448;2022-09-09T03:02:05;100596.00;;;21.70
63220;BMP180;49320;52.512;13.448;2022-09-09T03:04:32;100591.00;;;21.70
63220;BMP180;49320;52.512;13.448;2022-09-09T03:06:59;100591.00;;;21.70
63220;BMP180;49320;52.512;13.448;2022-09-09T03:09:27;100597.00;;;21.70
63220;BMP180;49320;52.512;13.448;2022-09-09T03:11:54;100603.00;;;21.70
63220;BMP180;49320;52.512;13.448;2022-09-09T03:14:22;100615.00;;;21.70
63220;BMP180;49320;52.512;13.448;2022-09-09T03:16:52;100619.00;;;21.70
63220;BMP180;49320;52.512;13.448;2022-09-09T03:19:20;100618.00;;;21.70
63220;BMP180;49320;52.512;13.448;2022-09-09T03:21:47;100618.00;;;21.70
63220;BMP180;49320;52.512;13.448;2022-09-09T03:24:15;100619.00;;;21.70
63220;BMP180;49320;52.512;13.448;2022-09-09T03:26:42;100622.00;;;21.70
63220;BMP180;49320;52.512;13.448;2022-09-09T03:29:12;100626.00;;;21.60
63220;BMP180;49320;52.512;13.448;2022-09-09T03:31:39;100624.00;;;21.60
63220;BMP180;49320;52.512;13.448;2022-09-09T03:34:06;100623.00;;;21.60
63220;BMP180;49320;52.512;13.448;2022-09-09T03:36:33;100629.00;;;21.60
63220;BMP180;49320;52.512;13.448;2022-09-09T03:39:01;100628.00;;;21.60
63220;BMP180;49320;52.512;13.448;2022-09-09T03:41:30;100623.00;;;21.60
63220;BMP180;49320;52.512;13.448;2022-09-09T03:43:57;100627.00;;;21.60
63220;BMP180;49320;52.512;13.448;2022-09-09T03:46:25;100619.00;;;21.60
63220;BMP180;49320;52.512;13.448;2022-09-09T03:48:52;100623.00;;;21.60
63220;BMP180;49320;52.512;13.448;2022-09-09T03:51:20;100622.00;;;21.50
63220;BMP180;49320;52.512;13.448;2022-09-09T03:53:47;100633.00;;;21.50
63220;BMP180;49320;52.512;13.448;2022-09-09T03:56:14;100630.00;;;21.50
63220;BMP180;49320;52.512;13.448;2022-09-09T03:58:41;100625.00;;;21.50
63220;BMP180;49320;52.512;13.448;2022-09-09T04:01:13;100621.00;;;21.50
63220;BMP180;49320;52.512;13.448;2022-09-09T04:03:40;100633.00;;;21.50
63220;BMP180;49320;52.512;13.448;2022-09-09T04:06:09;100630.00;;;21.40
63220;BMP180;49320;52.512;13.448;2022-09-09T04:08:38;100625.00;;;21.40
63220;BMP180;49320;52.512;13.448;2022-09-09T04:11:06;100623.00;;;21.40
63220;BMP180;49320;52.512;13.448;2022-09-09T04:13:35;100612.00;;;21.40
63220;BMP180;49320;52.512;13.448;2022-09-09T04:16:04;100617.00;;;21.40
63220;BMP180;49320;52.512;13.448;2022-09-09T04:18:31;100607.00;;;21.40
63220;BMP180;49320;52.512;13.448;2022-09-09T04:20:58;100611.00;;;21.40
63220;BMP180;49320;52.512;13.448;2022-09-09T04:23:27;100617.00;;;21.40
63220;BMP180;49320;52.512;13.448;2022-09-09T04:25:57;100628.00;;;21.40
63220;BMP180;49320;52.512;13.448;2022-09-09T04:28:28;100617.00;;;21.30
63220;BMP180;49320;52.512;13.448;2022-09-09T04:30:56;100624.00;;;21.30
63220;BMP180;49320;52.512;13.448;2022-09-09T04:33:26;100631.00;;;21.30
63220;BMP180;49320;52.512;13.448;2022-09-09T04:35:53;100643.00;;;21.30
63220;BMP180;49320;52.512;13.448;2022-09-09T04:38:20;100636.00;;;21.30
63220;BMP180;49320;52.512;13.448;2022-09-09T04:40:51;100640.00;;;21.30
63220;BMP180;49320;52.512;13.448;2022-09-09T04:43:18;100634.00;;;21.30
63220;BMP180;49320;52.512;13.448;2022-09-09T04:45:48;100639.00;;;21.30
63220;BMP180;49320;52.512;13.448;2022-09-09T04:48:15;100640.00;;;21.30
63220;BMP180;49320;52.512;13.448;2022-09-09T04:50:42;100639.00;;;21.30
63220;BMP180;49320;52.512;13.448;2022-09-09T04:53:09;100638.00;;;21.30
63220;BMP180;49320;52.512;13.448;2022-09-09T04:55:36;100643.00;;;21.40
63220;BMP180;49320;52.512;13.448;2022-09-09T04:58:08;100652.00;;;21.40
63220;BMP180;49320;52.512;13.448;2022-09-09T05:00:35;100661.00;;;21.40
63220;BMP180;49320;52.512;13.448;2022-09-09T05:03:05;100655.00;;;21.40
63220;BMP180;49320;52.512;13.448;2022-09-09T05:05:33;100659.00;;;21.50
63220;BMP180;49320;52.512;13.448;2022-09-09T05:08:05;100660.00;;;21.50
63220;BMP180;49320;52.512;13.448;2022-09-09T05:10:33;100667.00;;;21.50
63220;BMP180;49320;52.512;13.448;2022-09-09T05:13:01;100660.00;;;21.50
63220;BMP180;49320;52.512;13.448;2022-09-09T05:15:28;100671.00;;;21.60
63220;BMP180;49320;52.512;13.448;2022-09-09T05:18:00;100656.00;;;21.60
63220;BMP180;49320;52.512;13.448;2022-09-09T05:20:28;100655.00;;;21.60
63220;BMP180;49320;52.512;13.448;2022-09-09T05:22:56;100663.00;;;21.60
63220;BMP180;49320;52.512;13.448;2022-09-09T05:25:24;100645.00;;;21.70
63220;BMP180;49320;52.512;13.448;2022-09-09T05:27:52;100657.00;;;21.70
63220;BMP180;49320;52.512;13.448;2022-09-09T05:30:21;100657.00;;;21.70
63220;BMP180;49320;52.512;13.448;2022-09-09T05:32:49;100658.00;;;21.70
63220;BMP180;49320;52.512;13.448;2022-09-09T05:35:16;100645.00;;;21.70
63220;BMP180;49320;52.512;13.448;2022-09-09T05:37:45;100651.00;;;21.80
63220;BMP180;49320;52.512;13.448;2022-09-09T05:40:12;100651.00;;;21.80
63220;BMP180;49320;52.512;13.448;2022-09-09T05:42:40;100650.00;;;21.90
63220;BMP180;49320;52.512;13.448;2022-09-09T05:45:09;100658.00;;;21.90
63220;BMP180;49320;52.512;13.448;2022-09-09T05:47:36;100649.00;;;22.00
63220;BMP180;49320;52.512;13.448;2022-09-09T05:50:04;100651.00;;;22.00
63220;BMP180;49320;52.512;13.448;2022-09-09T05:52:31;100658.00;;;22.10
63220;BMP180;49320;52.512;13.448;2022-09-09T05:54:59;100655.00;;;22.10
63220;BMP180;49320;52.512;13.448;2022-09-09T05:57:26;100664.00;;;22.10
63220;BMP180;49320;52.512;13.448;2022-09-09T05:59:53;100656.00;;;22.20
63220;BMP180;49320;52.512;13.448;2022-09-09T06:02:20;100672.00;;;22.20
63220;BMP180;49320;52.512;13.448;2022-09-09T06:04:47;100665.00;;;22.30
63220;BMP180;49320;52.512;13.448;2022-09-09T06:07:14;100672.00;;;22.40
63220;BMP180;49320;52.512;13.448;2022-09-09T06:09:41;100679.00;;;22.40
63220;BMP180;49320;52.512;13.448;2022-09-09T06:12:08;100680.00;;;22.50
63220;BMP180;49320;52.512;13.448;2022-09-09T06:14:35;100687.00;;;22.60
63220;BMP180;49320;52.512;13.448;2022-09-09T06:17:03;100682.00;;;22.60
63220;BMP180;49320;52.512;13.448;2022-09-09T06:19:30;100690.00;;;22.60
63220;BMP180;49320;52.512;13.448;2022-09-09T06:21:57;100681.00;;;22.70
63220;BMP180;49320;52.512;13.448;2022-09-09T06:24:25;100685.00;;;22.80
63220;BMP180;49320;52.512;13.448;2022-09-09T06:26:51;100679.00;;;22.80
63220;BMP180;49320;52.512;13.448;2022-09-09T06:29:18;100682.00;;;22.90
63220;BMP180;49320;52.512;13.448;2022-09-09T06:31:45;100679.00;;;22.90
63220;BMP180;49320;52.512;13.448;2022-09-09T06:34:12;100669.00;;;23.00
63220;BMP180;49320;52.512;13.448;2022-09-09T06:36:39;100677.00;;;23.00
63220;BMP180;49320;52.512;13.448;2022-09-09T06:39:07;100687.00;;;23.10
63220;BMP180;49320;52.512;13.448;2022-09-09T06:41:41;100693.00;;;23.10
63220;BMP180;49320;52.512;13.448;2022-09-09T06:44:09;100689.00;;;23.20
63220;BMP180;49320;52.512;13.448;2022-09-09T06:46:38;100691.00;;;23.30
63220;BMP180;49320;52.512;13.448;2022-09-09T06:49:08;100699.00;;;23.30
63220;BMP180;49320;52.512;13.448;2022-09-09T06:51:37;100697.00;;;23.40
63220;BMP180;49320;52.512;13.448;2022-09-09T06:54:10;100691.00;;;23.40
63220;BMP180;49320;52.512;13.448;2022-09-09T06:56:40;100697.00;;;23.50
63220;BMP180;49320;52.512;13.448;2022-09-09T06:59:10;100699.00;;;23.60
63220;BMP180;49320;52.512;13.448;2022-09-09T07:01:43;100685.00;;;23.70
63220;BMP180;49320;52.512;13.448;2022-09-09T07:04:21;100694.00;;;23.80
63220;BMP180;49320;52.512;13.448;2022-09-09T07:06:47;100693.00;;;23.90
63220;BMP180;49320;52.512;13.448;2022-09-09T07:09:16;100693.00;;;24.00
63220;BMP180;49320;52.512;13.448;2022-09-09T07:11:51;100687.00;;;24.10
63220;BMP180;49320;52.512;13.448;2022-09-09T07:14:21;100696.00;;;24.10
63220;BMP180;49320;52.512;13.448;2022-09-09T07:16:49;100699.00;;;24.20
63220;BMP180;49320;52.512;13.448;2022-09-09T07:19:16;100695.00;;;24.30
63220;BMP180;49320;52.512;13.448;2022-09-09T07:21:43;100702.00;;;24.40
63220;BMP180;49320;52.512;13.448;2022-09-09T07:24:10;100703.00;;;24.50
63220;BMP180;49320;52.512;13.448;2022-09-09T07:26:40;100701.00;;;24.60
63220;BMP180;49320;52.512;13.448;2022-09-09T07:29:08;100703.00;;;24.70
63220;BMP180;49320;52.512;13.448;2022-09-09T07:31:38;100699.00;;;24.70
63220;BMP180;49320;52.512;13.448;2022-09-09T07:34:07;100702.00;;;24.80
63220;BMP180;49320;52.512;13.448;2022-09-09T07:36:37;100705.00;;;24.80
63220;BMP180;49320;52.512;13.448;2022-09-09T07:39:11;100707.00;;;24.90
63220;BMP180;49320;52.512;13.448;2022-09-09T07:41:45;100702.00;;;25.00
63220;BMP180;49320;52.512;13.448;2022-09-09T07:44:16;100706.00;;;25.10
63220;BMP180;49320;52.512;13.448;2022-09-09T07:46:44;100699.00;;;25.20
63220;BMP180;49320;52.512;13.448;2022-09-09T07:49:13;100708.00;;;25.30
63220;BMP180;49320;52.512;13.448;2022-09-09T07:51:45;100704.00;;;25.30
63220;BMP180;49320;52.512;13.448;2022-09-09T07:54:14;100711.00;;;25.40
63220;BMP180;49320;52.512;13.448;2022-09-09T07:56:42;100709.00;;;25.50
63220;BMP180;49320;52.512;13.448;2022-09-09T07:59:09;100698.00;;;25.60
63220;BMP180;49320;52.512;13.448;2022-09-09T08:01:41;100720.00;;;25.70
63220;BMP180;49320;52.512;13.448;2022-09-09T08:04:13;100712.00;;;25.80
63220;BMP180;49320;52.512;13.448;2022-09-09T08:06:51;100716.00;;;25.90
63220;BMP180;49320;52.512;13.448;2022-09-09T08:09:20;100713.00;;;26.00
63220;BMP180;49320;52.512;13.448;2022-09-09T08:11:47;100726.00;;;26.00
63220;BMP180;49320;52.512;13.448;2022-09-09T08:14:14;100724.00;;;26.10
63220;BMP180;49320;52.512;13.448;2022-09-09T08:16:46;100721.00;;;26.10
63220;BMP180;49320;52.512;13.448;2022-09-09T08:19:13;100729.00;;;26.20
63220;BMP180;49320;52.512;13.448;2022-09-09T08:21:42;100728.00;;;26.20
63220;BMP180;49320;52.512;13.448;2022-09-09T08:24:11;100733.00;;;26.20
63220;BMP180;49320;52.512;13.448;2022-09-09T08:26:42;100737.00;;;26.20
63220;BMP180;49320;52.512;13.448;2022-09-09T08:29:11;100739.00;;;26.20
63220;BMP180;49320;52.512;13.448;2022-09-09T08:31:47;100743.00;;;26.20
63220;BMP180;49320;52.512;13.448;2022-09-09T08:34:15;100735.00;;;26.20
63220;BMP180;49320;52.512;13.448;2022-09-09T08:36:44;100725.00;;;26.20
63220;BMP180;49320;52.512;13.448;2022-09-09T08:39:14;100726.00;;;26.20
63220;BMP180;49320;52.512;13.448;2022-09-09T08:47:32;100740.00;;;26.20
63220;BMP180;49320;52.512;13.448;2022-09-09T08:50:36;100746.00;;;26.20
63220;BMP180;49320;52.512;13.448;2022-09-09T08:55:41;100732.00;;;26.20
63220;BMP180;49320;52.512;13.448;2022-09-09T08:58:15;100733.00;;;26.30
63220;BMP180;49320;52.512;13.448;2022-09-09T09:01:02;100733.00;;;26.30
63220;BMP180;49320;52.512;13.448;2022-09-09T09:04:00;100736.00;;;26.40
63220;BMP180;49320;52.512;13.448;2022-09-09T09:11:57;100735.00;;;26.80
63220;BMP180;49320;52.512;13.448;2022-09-09T09:14:34;100744.00;;;26.90
63220;BMP180;49320;52.512;13.448;2022-09-09T09:17:19;100740.00;;;27.00
63220;BMP180;49320;52.512;13.448;2022-09-09T09:19:48;100739.00;;;27.20
63220;BMP180;49320;52.512;13.448;2022-09-09T09:22:30;100746.00;;;27.40
63220;BMP180;49320;52.512;13.448;2022-09-09T09:25:11;100741.00;;;27.60
63220;BMP180;49320;52.512;13.448;2022-09-09T09:27:57;100738.00;;;27.70
63220;BMP180;49320;52.512;13.448;2022-09-09T09:30:39;100731.00;;;27.90
63220;BMP180;49320;52.512;13.448;2022-09-09T09:33:21;100747.00;;;28.10
63220;BMP180;49320;52.512;13.448;2022-09-09T09:35:50;100743.00;;;28.20
63220;BMP180;49320;52.512;13.448;2022-09-09T09:38:25;100738.00;;;28.30
63220;BMP180;49320;52.512;13.448;2022-09-09T09:41:14;100735.00;;;28.50
63220;BMP180;49320;52.512;13.448;2022-09-09T09:43:41;100734.00;;;28.50
63220;BMP180;49320;52.512;13.448;2022-09-09T09:46:23;100730.00;;;28.50
63220;BMP180;49320;52.512;13.448;2022-09-09T09:49:09;100736.00;;;28.50
63220;BMP180;49320;52.512;13.448;2022-09-09T09:51:37;100743.00;;;28.50
63220;BMP180;49320;52.512;13.448;2022-09-09T09:56:41;100738.00;;;28.50
63220;BMP180;49320;52.512;13.448;2022-09-09T10:02:17;100734.00;;;28.50
63220;BMP180;49320;52.512;13.448;2022-09-09T10:04:45;100735.00;;;28.50
63220;BMP180;49320;52.512;13.448;2022-09-09T10:07:21;100735.00;;;28.40
63220;BMP180;49320;52.512;13.448;2022-09-09T10:09:54;100738.00;;;28.40
63220;BMP180;49320;52.512;13.448;2022-09-09T10:18:04;100743.00;;;28.30
63220;BMP180;49320;52.512;13.448;2022-09-09T10:21:03;100750.00;;;28.30
63220;BMP180;49320;52.512;13.448;2022-09-09T10:26:49;100745.00;;;28.30
63220;BMP180;49320;52.512;13.448;2022-09-09T10:29:44;100745.00;;;28.30
63220;BMP180;49320;52.512;13.448;2022-09-09T10:36:01;100746.00;;;28.50
63220;BMP180;49320;52.512;13.448;2022-09-09T10:38:42;100747.00;;;28.50
63220;BMP180;49320;52.512;13.448;2022-09-09T10:41:19;100751.00;;;28.50
63220;BMP180;49320;52.512;13.448;2022-09-09T10:44:11;100751.00;;;28.50
63220;BMP180;49320;52.512;13.448;2022-09-09T10:46:44;100754.00;;;28.60
63220;BMP180;49320;52.512;13.448;2022-09-09T10:52:40;100756.00;;;28.60
63220;BMP180;49320;52.512;13.448;2022-09-09T10:55:18;100746.00;;;28.60
63220;BMP180;49320;52.512;13.448;2022-09-09T10:57:50;100751.00;;;28.70
63220;BMP180;49320;52.512;13.448;2022-09-09T11:00:25;100744.00;;;28.70
63220;BMP180;49320;52.512;13.448;2022-09-09T11:03:01;100750.00;;;28.70
63220;BMP180;49320;52.512;13.448;2022-09-09T11:05:47;100746.00;;;28.90
63220;BMP180;49320;52.512;13.448;2022-09-09T11:08:23;100747.00;;;29.00
63220;BMP180;49320;52.512;13.448;2022-09-09T11:11:22;100749.00;;;29.00
63220;BMP180;49320;52.512;13.448;2022-09-09T11:16:34;100741.00;;;29.10
63220;BMP180;49320;52.512;13.448;2022-09-09T11:19:22;100747.00;;;29.20
63220;BMP180;49320;52.512;13.448;2022-09-09T11:21:53;100747.00;;;29.20
63220;BMP180;49320;52.512;13.448;2022-09-09T11:24:38;100746.00;;;29.20
63220;BMP180;49320;52.512;13.448;2022-09-09T11:27:25;100751.00;;;29.30
63220;BMP180;49320;52.512;13.448;2022-09-09T11:30:14;100748.00;;;29.40
63220;BMP180;49320;52.512;13.448;2022-09-09T11:36:13;100741.00;;;29.50
63220;BMP180;49320;52.512;13.448;2022-09-09T11:38:50;100751.00;;;29.60
63220;BMP180;49320;52.512;13.448;2022-09-09T11:41:20;100735.00;;;29.70
63220;BMP180;49320;52.512;13.448;2022-09-09T11:43:52;100738.00;;;29.70
63220;BMP180;49320;52.512;13.448;2022-09-09T11:46:34;100747.00;;;29.80
63220;BMP180;49320;52.512;13.448;2022-09-09T11:49:05;100740.00;;;29.80
63220;BMP180;49320;52.512;13.448;2022-09-09T11:51:34;100739.00;;;29.80
63220;BMP180;49320;52.512;13.448;2022-09-09T11:54:32;100733.00;;;29.90
63220;BMP180;49320;52.512;13.448;2022-09-09T11:56:59;100745.00;;;29.90
63220;BMP180;49320;52.512;13.448;2022-09-09T11:59:33;100736.00;;;30.00
63220;BMP180;49320;52.512;13.448;2022-09-09T12:02:23;100728.00;;;30.00
63220;BMP180;49320;52.512;13.448;2022-09-09T12:04:57;100728.00;;;30.00
63220;BMP180;49320;52.512;13.448;2022-09-09T12:12:38;100708.00;;;30.00
63220;BMP180;49320;52.512;13.448;2022-09-09T12:17:51;100705.00;;;30.20
63220;BMP180;49320;52.512;13.448;2022-09-09T12:21:18;100709.00;;;30.10
63220;BMP180;49320;52.512;13.448;2022-09-09T12:24:06;100706.00;;;30.20
63220;BMP180;49320;52.512;13.448;2022-09-09T12:26:47;100709.00;;;30.10
63220;BMP180;49320;52.512;13.448;2022-09-09T12:29:56;100699.00;;;30.10
63220;BMP180;49320;52.512;13.448;2022-09-09T12:32:26;100700.00;;;30.10
63220;BMP180;49320;52.512;13.448;2022-09-09T12:35:11;100702.00;;;30.10
63220;BMP180;49320;52.512;13.448;2022-09-09T12:37:56;100696.00;;;30.10
63220;BMP180;49320;52.512;13.448;2022-09-09T12:40:33;100695.00;;;30.10
63220;BMP180;49320;52.512;13.448;2022-09-09T12:43:23;100697.00;;;30.00
63220;BMP180;49320;52.512;13.448;2022-09-09T12:46:07;100684.00;;;30.00
63220;BMP180;49320;52.512;13.448;2022-09-09T12:48:41;100675.00;;;30.00
63220;BMP180;49320;52.512;13.448;2022-09-09T12:51:29;100687.00;;;30.00
63220;BMP180;49320;52.512;13.448;2022-09-09T12:53:58;100684.00;;;30.00
63220;BMP180;49320;52.512;13.448;2022-09-09T12:56:30;100696.00;;;30.00
63220;BMP180;49320;52.512;13.448;2022-09-09T12:58:58;100682.00;;;30.10
63220;BMP180;49320;52.512;13.448;2022-09-09T13:01:30;100696.00;;;30.10
63220;BMP180;49320;52.512;13.448;2022-09-09T13:03:57;100692.00;;;30.20
63220;BMP180;49320;52.512;13.448;2022-09-09T13:06:30;100692.00;;;30.30
63220;BMP180;49320;52.512;13.448;2022-09-09T13:09:02;100699.00;;;30.30
63220;BMP180;49320;52.512;13.448;2022-09-09T13:11:41;100695.00;;;30.40
63220;BMP180;49320;52.512;13.448;2022-09-09T13:14:19;100708.00;;;30.50
63220;BMP180;49320;52.512;13.448;2022-09-09T13:17:05;100712.00;;;30.60
63220;BMP180;49320;52.512;13.448;2022-09-09T13:19:37;100704.00;;;30.60
63220;BMP180;49320;52.512;13.448;2022-09-09T13:22:37;100700.00;;;30.70
63220;BMP180;49320;52.512;13.448;2022-09-09T13:25:27;100700.00;;;30.80
63220;BMP180;49320;52.512;13.448;2022-09-09T13:28:03;100687.00;;;30.80
63220;BMP180;49320;52.512;13.448;2022-09-09T13:30:36;100688.00;;;30.90
63220;BMP180;49320;52.512;13.448;2022-09-09T13:33:23;100685.00;;;30.90
63220;BMP180;49320;52.512;13.448;2022-09-09T13:36:08;100672.00;;;30.90
63220;BMP180;49320;52.512;13.448;2022-09-09T13:38:40;100666.00;;;30.90
63220;BMP180;49320;52.512;13.448;2022-09-09T13:41:34;100678.00;;;31.00
63220;BMP180;49320;52.512;13.448;2022-09-09T13:44:03;100678.00;;;31.00
63220;BMP180;49320;52.512;13.448;2022-09-09T13:46:40;100675.00;;;31.10
63220;BMP180;49320;52.512;13.448;2022-09-09T13:51:45;100666.00;;;31.20
63220;BMP180;49320;52.512;13.448;2022-09-09T13:54:16;100672.00;;;31.20
63220;BMP180;49320;52.512;13.448;2022-09-09T13:56:45;100672.00;;;31.30
63220;BMP180;49320;52.512;13.448;2022-09-09T13:59:15;100675.00;;;31.40
63220;BMP180;49320;52.512;13.448;2022-09-09T14:01:42;100681.00;;;31.50
63220;BMP180;49320;52.512;13.448;2022-09-09T14:04:10;100667.00;;;31.50
63220;BMP180;49320;52.512;13.448;2022-09-09T14:06:38;100673.00;;;31.60
63220;BMP180;49320;52.512;13.448;2022-09-09T14:09:11;100682.00;;;31.60
63220;BMP180;49320;52.512;13.448;2022-09-09T14:11:38;100681.00;;;31.60
63220;BMP180;49320;52.512;13.448;2022-09-09T14:14:05;100686.00;;;31.50
63220;BMP180;49320;52.512;13.448;2022-09-09T14:16:32;100689.00;;;31.50
63220;BMP180;49320;52.512;13.448;2022-09-09T14:18:59;100676.00;;;31.50
63220;BMP180;49320;52.512;13.448;2022-09-09T14:21:27;100677.00;;;31.50
63220;BMP180;49320;52.512;13.448;2022-09-09T14:23:54;100686.00;;;31.50
63220;BMP180;49320;52.512;13.448;2022-09-09T14:26:22;100676.00;;;31.50
63220;BMP180;49320;52.512;13.448;2022-09-09T14:28:50;100684.00;;;31.50
63220;BMP180;49320;52.512;13.448;2022-09-09T14:31:23;100676.00;;;31.60
63220;BMP180;49320;52.512;13.448;2022-09-09T14:33:51;100678.00;;;31.70
63220;BMP180;49320;52.512;13.448;2022-09-09T14:36:18;100685.00;;;31.80
63220;BMP180;49320;52.512;13.448;2022-09-09T14:38:45;100671.00;;;31.80
63220;BMP180;49320;52.512;13.448;2022-09-09T14:41:16;100676.00;;;31.90
63220;BMP180;49320;52.512;13.448;2022-09-09T14:43:44;100664.00;;;31.90
63220;BMP180;49320;52.512;13.448;2022-09-09T14:46:15;100669.00;;;31.90
63220;BMP180;49320;52.512;13.448;2022-09-09T14:48:43;100676.00;;;31.90
63220;BMP180;49320;52.512;13.448;2022-09-09T14:51:24;100684.00;;;31.80
63220;BMP180;49320;52.512;13.448;2022-09-09T14:53:52;100681.00;;;31.70
63220;BMP180;49320;52.512;13.448;2022-09-09T14:56:22;100678.00;;;31.70
63220;BMP180;49320;52.512;13.448;2022-09-09T14:58:50;100677.00;;;31.60
63220;BMP180;49320;52.512;13.448;2022-09-09T15:01:19;100682.00;;;31.50
63220;BMP180;49320;52.512;13.448;2022-09-09T15:04:03;100683.00;;;31.30
63220;BMP180;49320;52.512;13.448;2022-09-09T15:06:33;100681.00;;;31.20
63220;BMP180;49320;52.512;13.448;2022-09-09T15:09:00;100689.00;;;31.20
63220;BMP180;49320;52.512;13.448;2022-09-09T15:11:31;100685.00;;;31.10
63220;BMP180;49320;52.512;13.448;2022-09-09T15:14:01;100676.00;;;31.00
63220;BMP180;49320;52.512;13.448;2022-09-09T15:16:28;100670.00;;;31.00
63220;BMP180;49320;52.512;13.448;2022-09-09T15:18:58;100669.00;;;30.90
63220;BMP180;49320;52.512;13.448;2022-09-09T15:21:30;100670.00;;;31.00
63220;BMP180;49320;52.512;13.448;2022-09-09T15:23:58;100666.00;;;30.90
63220;BMP180;49320;52.512;13.448;2022-09-09T15:26:26;100662.00;;;30.90
63220;BMP180;49320;52.512;13.448;2022-09-09T15:28:53;100666.00;;;31.00